sensor_id;sensor_type;location;lat;lon;timestamp;P1;durP1;ratioP1;P2;durP2;ratioP2
69244;SDS011;56357;52.304;4.870;2022-11-18T00:00:49;4.50;;;1.10;;
69244;SDS011;56357;52.304;4.870;2022-11-18T00:03:16;4.50;;;0.97;;
69244;SDS011;56357;52.304;4.870;2022-11-18T00:05:51;4.18;;;0.90;;
69244;SDS011;56357;52.304;4.870;2022-11-18T00:08:21;4.57;;;0.70;;
69244;SDS011;56357;52.304;4.870;2022-11-18T00:10:49;4.22;;;0.90;;
69244;SDS011;56357;52.304;4.870;2022-11-18T00:13:16;6.28;;;0.88;;
69244;SDS011;56357;52.304;4.870;2022-11-18T00:16:01;5.53;;;1.37;;
69244;SDS011;56357;52.304;4.870;2022-11-18T00:18:29;3.35;;;0.80;;
69244;SDS011;56357;52.304;4.870;2022-11-18T00:21:02;4.10;;;0.80;;
69244;SDS011;56357;52.304;4.870;2022-11-18T00:23:33;4.72;;;0.80;;
69244;SDS011;56357;52.304;4.870;2022-11-18T00:26:07;3.95;;;0.90;;
69244;SDS011;56357;52.304;4.870;2022-11-18T00:28:37;4.07;;;1.30;;
69244;SDS011;56357;52.304;4.870;2022-11-18T00:31:05;4.85;;;0.70;;
69244;SDS011;56357;52.304;4.870;2022-11-18T00:33:33;3.95;;;1.08;;
69244;SDS011;56357;52.304;4.870;2022-11-18T00:36:00;4.50;;;1.10;;
69244;SDS011;56357;52.304;4.870;2022-11-18T00:38:28;3.55;;;0.70;;
69244;SDS011;56357;52.304;4.870;2022-11-18T00:41:14;3.97;;;0.60;;
69244;SDS011;56357;52.304;4.870;2022-11-18T00:43:41;3.20;;;0.80;;
69244;SDS011;56357;52.304;4.870;2022-11-18T00:46:07;4.20;;;0.80;;
69244;SDS011;56357;52.304;4.870;2022-11-18T00:48:36;4.22;;;0.70;;
69244;SDS011;56357;52.304;4.870;2022-11-18T00:51:13;3.97;;;0.90;;
69244;SDS011;56357;52.304;4.870;2022-11-18T00:53:41;4.30;;;0.80;;
69244;SDS011;56357;52.304;4.870;2022-11-18T00:56:09;3.80;;;0.93;;
69244;SDS011;56357;52.304;4.870;2022-11-18T00:58:36;4.47;;;0.82;;
69244;SDS011;56357;52.304;4.870;2022-11-18T01:01:03;4.60;;;1.10;;
69244;SDS011;56357;52.304;4.870;2022-11-18T01:03:29;3.40;;;0.90;;
69244;SDS011;56357;52.304;4.870;2022-11-18T01:05:56;4.90;;;1.08;;
69244;SDS011;56357;52.304;4.870;2022-11-18T01:08:23;4.47;;;0.90;;
69244;SDS011;56357;52.304;4.870;2022-11-18T01:10:50;5.85;;;1.15;;
69244;SDS011;56357;52.304;4.870;2022-11-18T01:13:18;3.60;;;0.80;;
69244;SDS011;56357;52.304;4.870;2022-11-18T01:18:16;3.30;;;0.82;;
69244;SDS011;56357;52.304;4.870;2022-11-18T01:20:44;4.07;;;0.93;;
69244;SDS011;56357;52.304;4.870;2022-11-18T01:23:11;3.72;;;0.77;;
69244;SDS011;56357;52.304;4.870;2022-11-18T01:25:39;4.28;;;1.10;;
69244;SDS011;56357;52.304;4.870;2022-11-18T01:28:07;4.07;;;0.90;;
69244;SDS011;56357;52.304;4.870;2022-11-18T01:30:35;4.38;;;0.90;;
69244;SDS011;56357;52.304;4.870;2022-11-18T01:33:03;4.75;;;1.02;;
69244;SDS011;56357;52.304;4.870;2022-11-18T01:35:34;4.78;;;0.90;;
69244;SDS011;56357;52.304;4.870;2022-11-18T01:38:01;5.07;;;1.02;;
69244;SDS011;56357;52.304;4.870;2022-11-18T01:40:28;3.57;;;0.70;;
69244;SDS011;56357;52.304;4.870;2022-11-18T01:42:55;2.90;;;0.70;;
69244;SDS011;56357;52.304;4.870;2022-11-18T01:48:19;4.13;;;0.60;;
69244;SDS011;56357;52.304;4.870;2022-11-18T01:50:57;3.80;;;0.70;;
69244;SDS011;56357;52.304;4.870;2022-11-18T01:53:30;5.60;;;0.77;;
69244;SDS011;56357;52.304;4.870;2022-11-18T01:55:59;4.25;;;0.90;;
69244;SDS011;56357;52.304;4.870;2022-11-18T01:58:30;4.13;;;0.80;;
69244;SDS011;56357;52.304;4.870;2022-11-18T02:01:04;4.35;;;0.70;;
69244;SDS011;56357;52.304;4.870;2022-11-18T02:03:33;3.90;;;0.80;;
69244;SDS011;56357;52.304;4.870;2022-11-18T02:06:00;3.80;;;0.70;;
69244;SDS011;56357;52.304;4.870;2022-11-18T02:08:28;5.75;;;1.05;;
69244;SDS011;56357;52.304;4.870;2022-11-18T02:10:55;4.13;;;0.95;;
69244;SDS011;56357;52.304;4.870;2022-11-18T02:13:22;5.72;;;0.80;;
69244;SDS011;56357;52.304;4.870;2022-11-18T02:15:53;4.80;;;0.90;;
69244;SDS011;56357;52.304;4.870;2022-11-18T02:18:40;2.80;;;0.57;;
69244;SDS011;56357;52.304;4.870;2022-11-18T02:29:37;4.25;;;0.70;;
69244;SDS011;56357;52.304;4.870;2022-11-18T02:32:10;4.00;;;0.80;;
69244;SDS011;56357;52.304;4.870;2022-11-18T02:34:58;4.22;;;0.70;;
69244;SDS011;56357;52.304;4.870;2022-11-18T02:37:35;4.57;;;0.88;;
69244;SDS011;56357;52.304;4.870;2022-11-18T02:42:40;5.35;;;0.98;;
69244;SDS011;56357;52.304;4.870;2022-11-18T02:45:14;3.70;;;0.87;;
69244;SDS011;56357;52.304;4.870;2022-11-18T02:47:43;3.65;;;0.90;;
69244;SDS011;56357;52.304;4.870;2022-11-18T02:50:14;6.05;;;0.80;;
69244;SDS011;56357;52.304;4.870;2022-11-18T02:52:44;3.45;;;0.80;;
69244;SDS011;56357;52.304;4.870;2022-11-18T02:55:13;3.78;;;0.77;;
69244;SDS011;56357;52.304;4.870;2022-11-18T02:57:42;3.97;;;0.70;;
69244;SDS011;56357;52.304;4.870;2022-11-18T03:00:10;3.60;;;0.90;;
69244;SDS011;56357;52.304;4.870;2022-11-18T03:05:26;5.30;;;0.93;;
69244;SDS011;56357;52.304;4.870;2022-11-18T03:07:56;4.65;;;1.02;;
69244;SDS011;56357;52.304;4.870;2022-11-18T03:10:31;3.80;;;0.70;;
69244;SDS011;56357;52.304;4.870;2022-11-18T03:13:13;3.55;;;0.77;;
69244;SDS011;56357;52.304;4.870;2022-11-18T03:16:03;3.85;;;0.85;;
69244;SDS011;56357;52.304;4.870;2022-11-18T03:18:40;4.22;;;1.20;;
69244;SDS011;56357;52.304;4.870;2022-11-18T03:21:23;4.25;;;0.90;;
69244;SDS011;56357;52.304;4.870;2022-11-18T03:23:58;4.50;;;0.90;;
69244;SDS011;56357;52.304;4.870;2022-11-18T03:26:35;4.20;;;0.90;;
69244;SDS011;56357;52.304;4.870;2022-11-18T03:29:24;4.38;;;0.90;;
69244;SDS011;56357;52.304;4.870;2022-11-18T03:31:58;5.82;;;1.05;;
69244;SDS011;56357;52.304;4.870;2022-11-18T03:34:38;4.43;;;1.10;;
69244;SDS011;56357;52.304;4.870;2022-11-18T03:37:09;4.20;;;0.77;;
69244;SDS011;56357;52.304;4.870;2022-11-18T03:39:47;3.80;;;1.00;;
69244;SDS011;56357;52.304;4.870;2022-11-18T03:45:00;4.18;;;0.70;;
69244;SDS011;56357;52.304;4.870;2022-11-18T03:47:32;3.72;;;0.90;;
69244;SDS011;56357;52.304;4.870;2022-11-18T03:50:12;3.73;;;0.70;;
69244;SDS011;56357;52.304;4.870;2022-11-18T03:52:43;5.07;;;0.98;;
69244;SDS011;56357;52.304;4.870;2022-11-18T03:55:13;3.38;;;0.85;;
69244;SDS011;56357;52.304;4.870;2022-11-18T03:57:51;3.95;;;1.00;;
69244;SDS011;56357;52.304;4.870;2022-11-18T04:00:25;4.25;;;0.90;;
69244;SDS011;56357;52.304;4.870;2022-11-18T04:02:58;5.10;;;0.80;;
69244;SDS011;56357;52.304;4.870;2022-11-18T04:05:24;4.45;;;0.90;;
69244;SDS011;56357;52.304;4.870;2022-11-18T04:07:56;5.45;;;1.60;;
69244;SDS011;56357;52.304;4.870;2022-11-18T04:10:33;4.55;;;0.82;;
69244;SDS011;56357;52.304;4.870;2022-11-18T04:13:05;4.20;;;0.90;;
69244;SDS011;56357;52.304;4.870;2022-11-18T04:15:37;4.87;;;0.70;;
69244;SDS011;56357;52.304;4.870;2022-11-18T04:18:06;4.15;;;1.10;;
69244;SDS011;56357;52.304;4.870;2022-11-18T04:20:33;3.78;;;1.00;;
69244;SDS011;56357;52.304;4.870;2022-11-18T04:23:01;4.28;;;0.93;;
69244;SDS011;56357;52.304;4.870;2022-11-18T04:25:28;4.75;;;0.65;;
69244;SDS011;56357;52.304;4.870;2022-11-18T04:27:54;3.83;;;0.67;;
69244;SDS011;56357;52.304;4.870;2022-11-18T04:30:21;4.78;;;0.88;;
69244;SDS011;56357;52.304;4.870;2022-11-18T04:32:47;4.32;;;1.00;;
69244;SDS011;56357;52.304;4.870;2022-11-18T04:35:14;4.43;;;0.90;;
69244;SDS011;56357;52.304;4.870;2022-11-18T04:37:40;4.28;;;1.00;;
69244;SDS011;56357;52.304;4.870;2022-11-18T04:40:07;7.77;;;1.07;;
69244;SDS011;56357;52.304;4.870;2022-11-18T04:42:34;3.80;;;0.90;;
69244;SDS011;56357;52.304;4.870;2022-11-18T04:45:00;5.63;;;1.17;;
69244;SDS011;56357;52.304;4.870;2022-11-18T04:47:27;3.83;;;0.80;;
69244;SDS011;56357;52.304;4.870;2022-11-18T04:49:53;4.82;;;1.02;;
69244;SDS011;56357;52.304;4.870;2022-11-18T04:52:19;3.97;;;0.80;;
69244;SDS011;56357;52.304;4.870;2022-11-18T04:54:46;5.40;;;0.82;;
69244;SDS011;56357;52.304;4.870;2022-11-18T04:57:12;3.90;;;0.90;;
69244;SDS011;56357;52.304;4.870;2022-11-18T04:59:38;3.78;;;0.70;;
69244;SDS011;56357;52.304;4.870;2022-11-18T05:02:05;4.03;;;1.00;;
69244;SDS011;56357;52.304;4.870;2022-11-18T05:04:32;4.30;;;0.97;;
69244;SDS011;56357;52.304;4.870;2022-11-18T05:07:00;5.75;;;0.90;;
69244;SDS011;56357;52.304;4.870;2022-11-18T05:09:28;5.53;;;1.13;;
69244;SDS011;56357;52.304;4.870;2022-11-18T05:11:55;4.05;;;0.68;;
69244;SDS011;56357;52.304;4.870;2022-11-18T05:14:38;4.10;;;0.82;;
69244;SDS011;56357;52.304;4.870;2022-11-18T05:17:06;4.10;;;1.00;;
69244;SDS011;56357;52.304;4.870;2022-11-18T05:19:35;6.18;;;1.00;;
69244;SDS011;56357;52.304;4.870;2022-11-18T05:22:02;4.00;;;0.90;;
69244;SDS011;56357;52.304;4.870;2022-11-18T05:24:29;5.35;;;1.33;;
69244;SDS011;56357;52.304;4.870;2022-11-18T05:26:55;6.50;;;1.10;;
69244;SDS011;56357;52.304;4.870;2022-11-18T05:29:22;4.97;;;0.87;;
69244;SDS011;56357;52.304;4.870;2022-11-18T05:31:48;3.90;;;0.80;;
69244;SDS011;56357;52.304;4.870;2022-11-18T05:34:15;4.85;;;0.98;;
69244;SDS011;56357;52.304;4.870;2022-11-18T05:36:43;3.55;;;0.80;;
69244;SDS011;56357;52.304;4.870;2022-11-18T05:39:09;4.43;;;0.90;;
69244;SDS011;56357;52.304;4.870;2022-11-18T05:41:35;4.57;;;0.90;;
69244;SDS011;56357;52.304;4.870;2022-11-18T05:44:19;4.15;;;0.90;;
69244;SDS011;56357;52.304;4.870;2022-11-18T05:46:45;4.00;;;0.65;;
69244;SDS011;56357;52.304;4.870;2022-11-18T05:49:12;4.65;;;0.90;;
69244;SDS011;56357;52.304;4.870;2022-11-18T05:51:38;3.63;;;0.65;;
69244;SDS011;56357;52.304;4.870;2022-11-18T05:54:06;4.63;;;0.90;;
69244;SDS011;56357;52.304;4.870;2022-11-18T05:56:38;3.53;;;0.90;;
69244;SDS011;56357;52.304;4.870;2022-11-18T05:59:05;4.22;;;1.00;;
69244;SDS011;56357;52.304;4.870;2022-11-18T06:01:37;4.47;;;1.05;;
69244;SDS011;56357;52.304;4.870;2022-11-18T06:04:07;4.00;;;0.70;;
69244;SDS011;56357;52.304;4.870;2022-11-18T06:06:36;3.63;;;0.70;;
69244;SDS011;56357;52.304;4.870;2022-11-18T06:09:04;6.00;;;0.85;;
69244;SDS011;56357;52.304;4.870;2022-11-18T06:11:40;5.50;;;1.00;;
69244;SDS011;56357;52.304;4.870;2022-11-18T06:14:10;3.35;;;0.50;;
69244;SDS011;56357;52.304;4.870;2022-11-18T06:16:51;5.43;;;1.00;;
69244;SDS011;56357;52.304;4.870;2022-11-18T06:19:21;4.13;;;0.70;;
69244;SDS011;56357;52.304;4.870;2022-11-18T06:21:47;5.68;;;0.93;;
69244;SDS011;56357;52.304;4.870;2022-11-18T06:24:14;4.53;;;0.95;;
69244;SDS011;56357;52.304;4.870;2022-11-18T06:26:42;6.03;;;0.90;;
69244;SDS011;56357;52.304;4.870;2022-11-18T06:29:10;4.53;;;1.20;;
69244;SDS011;56357;52.304;4.870;2022-11-18T06:31:39;5.10;;;0.80;;
69244;SDS011;56357;52.304;4.870;2022-11-18T06:34:06;3.92;;;0.80;;
69244;SDS011;56357;52.304;4.870;2022-11-18T06:36:32;5.13;;;1.08;;
69244;SDS011;56357;52.304;4.870;2022-11-18T06:39:02;5.70;;;0.95;;
69244;SDS011;56357;52.304;4.870;2022-11-18T06:41:32;4.18;;;0.80;;
69244;SDS011;56357;52.304;4.870;2022-11-18T06:43:59;6.87;;;0.93;;
69244;SDS011;56357;52.304;4.870;2022-11-18T06:46:25;5.47;;;1.05;;
69244;SDS011;56357;52.304;4.870;2022-11-18T06:49:09;5.57;;;1.08;;
69244;SDS011;56357;52.304;4.870;2022-11-18T06:51:35;7.57;;;1.08;;
69244;SDS011;56357;52.304;4.870;2022-11-18T06:54:03;6.07;;;0.90;;
69244;SDS011;56357;52.304;4.870;2022-11-18T06:56:29;5.37;;;1.10;;
69244;SDS011;56357;52.304;4.870;2022-11-18T06:58:56;5.05;;;0.93;;
69244;SDS011;56357;52.304;4.870;2022-11-18T07:01:28;5.25;;;0.88;;
69244;SDS011;56357;52.304;4.870;2022-11-18T07:03:58;7.30;;;1.10;;
69244;SDS011;56357;52.304;4.870;2022-11-18T07:06:26;8.63;;;0.95;;
69244;SDS011;56357;52.304;4.870;2022-11-18T07:08:54;6.13;;;1.20;;
69244;SDS011;56357;52.304;4.870;2022-11-18T07:11:24;10.02;;;1.33;;
69244;SDS011;56357;52.304;4.870;2022-11-18T07:13:51;11.30;;;1.70;;
69244;SDS011;56357;52.304;4.870;2022-11-18T07:16:19;6.50;;;0.85;;
69244;SDS011;56357;52.304;4.870;2022-11-18T07:18:48;6.85;;;1.00;;
69244;SDS011;56357;52.304;4.870;2022-11-18T07:21:17;9.57;;;1.00;;
69244;SDS011;56357;52.304;4.870;2022-11-18T07:23:45;7.00;;;0.93;;
69244;SDS011;56357;52.304;4.870;2022-11-18T07:26:12;9.10;;;1.17;;
69244;SDS011;56357;52.304;4.870;2022-11-18T07:28:39;7.63;;;1.10;;
69244;SDS011;56357;52.304;4.870;2022-11-18T07:31:12;6.85;;;0.90;;
69244;SDS011;56357;52.304;4.870;2022-11-18T07:33:41;5.57;;;1.13;;
69244;SDS011;56357;52.304;4.870;2022-11-18T07:36:12;8.05;;;1.20;;
69244;SDS011;56357;52.304;4.870;2022-11-18T07:38:40;5.97;;;1.17;;
69244;SDS011;56357;52.304;4.870;2022-11-18T07:41:11;10.63;;;1.20;;
69244;SDS011;56357;52.304;4.870;2022-11-18T07:43:39;8.85;;;1.20;;
69244;SDS011;56357;52.304;4.870;2022-11-18T07:48:43;6.25;;;0.98;;
69244;SDS011;56357;52.304;4.870;2022-11-18T07:51:11;10.18;;;1.50;;
69244;SDS011;56357;52.304;4.870;2022-11-18T07:53:39;4.90;;;1.00;;
69244;SDS011;56357;52.304;4.870;2022-11-18T07:56:06;6.18;;;1.40;;
69244;SDS011;56357;52.304;4.870;2022-11-18T07:58:33;6.63;;;1.00;;
69244;SDS011;56357;52.304;4.870;2022-11-18T08:01:33;7.75;;;1.00;;
69244;SDS011;56357;52.304;4.870;2022-11-18T08:03:54;8.05;;;1.10;;
69244;SDS011;56357;52.304;4.870;2022-11-18T08:06:22;10.10;;;1.20;;
69244;SDS011;56357;52.304;4.870;2022-11-18T08:08:48;9.85;;;1.65;;
69244;SDS011;56357;52.304;4.870;2022-11-18T08:11:16;6.67;;;1.27;;
69244;SDS011;56357;52.304;4.870;2022-11-18T08:13:43;6.55;;;1.10;;
69244;SDS011;56357;52.304;4.870;2022-11-18T08:16:11;5.40;;;0.95;;
69244;SDS011;56357;52.304;4.870;2022-11-18T08:18:42;5.72;;;0.82;;
69244;SDS011;56357;52.304;4.870;2022-11-18T08:21:08;5.88;;;1.20;;
69244;SDS011;56357;52.304;4.870;2022-11-18T08:23:35;7.87;;;0.90;;
69244;SDS011;56357;52.304;4.870;2022-11-18T08:26:12;7.65;;;1.10;;
69244;SDS011;56357;52.304;4.870;2022-11-18T08:28:40;7.70;;;1.20;;
69244;SDS011;56357;52.304;4.870;2022-11-18T08:31:17;6.63;;;0.90;;
69244;SDS011;56357;52.304;4.870;2022-11-18T08:33:45;4.75;;;1.00;;
69244;SDS011;56357;52.304;4.870;2022-11-18T08:36:15;6.87;;;1.10;;
69244;SDS011;56357;52.304;4.870;2022-11-18T08:38:43;5.82;;;1.38;;
69244;SDS011;56357;52.304;4.870;2022-11-18T08:41:15;5.60;;;1.10;;
69244;SDS011;56357;52.304;4.870;2022-11-18T08:43:46;6.80;;;0.80;;
69244;SDS011;56357;52.304;4.870;2022-11-18T08:46:12;5.75;;;0.90;;
69244;SDS011;56357;52.304;4.870;2022-11-18T08:48:38;6.60;;;0.90;;
69244;SDS011;56357;52.304;4.870;2022-11-18T08:51:05;5.72;;;1.00;;
69244;SDS011;56357;52.304;4.870;2022-11-18T08:53:34;5.55;;;1.00;;
69244;SDS011;56357;52.304;4.870;2022-11-18T08:56:00;5.65;;;0.85;;
69244;SDS011;56357;52.304;4.870;2022-11-18T08:58:27;7.25;;;1.00;;
69244;SDS011;56357;52.304;4.870;2022-11-18T09:00:53;6.70;;;1.30;;
69244;SDS011;56357;52.304;4.870;2022-11-18T09:03:20;8.18;;;0.90;;
69244;SDS011;56357;52.304;4.870;2022-11-18T09:05:46;5.63;;;1.15;;
69244;SDS011;56357;52.304;4.870;2022-11-18T09:08:13;4.68;;;0.93;;
69244;SDS011;56357;52.304;4.870;2022-11-18T09:10:41;6.55;;;1.30;;
69244;SDS011;56357;52.304;4.870;2022-11-18T09:13:07;5.70;;;0.97;;
69244;SDS011;56357;52.304;4.870;2022-11-18T09:15:34;7.45;;;0.98;;
69244;SDS011;56357;52.304;4.870;2022-11-18T09:18:00;4.13;;;0.70;;
69244;SDS011;56357;52.304;4.870;2022-11-18T09:20:27;5.35;;;0.90;;
69244;SDS011;56357;52.304;4.870;2022-11-18T09:22:53;4.43;;;0.80;;
69244;SDS011;56357;52.304;4.870;2022-11-18T09:25:19;4.93;;;0.90;;
69244;SDS011;56357;52.304;4.870;2022-11-18T09:27:46;4.80;;;1.08;;
69244;SDS011;56357;52.304;4.870;2022-11-18T09:30:12;4.68;;;0.88;;
69244;SDS011;56357;52.304;4.870;2022-11-18T09:32:39;5.43;;;1.10;;
69244;SDS011;56357;52.304;4.870;2022-11-18T09:35:05;5.13;;;0.88;;
69244;SDS011;56357;52.304;4.870;2022-11-18T09:37:32;4.83;;;1.03;;
69244;SDS011;56357;52.304;4.870;2022-11-18T09:39:58;5.75;;;0.80;;
69244;SDS011;56357;52.304;4.870;2022-11-18T09:45:00;5.28;;;1.15;;
69244;SDS011;56357;52.304;4.870;2022-11-18T09:47:34;6.43;;;0.82;;
69244;SDS011;56357;52.304;4.870;2022-11-18T09:50:05;5.47;;;1.00;;
69244;SDS011;56357;52.304;4.870;2022-11-18T09:52:38;6.25;;;0.80;;
69244;SDS011;56357;52.304;4.870;2022-11-18T09:55:14;4.95;;;0.90;;
69244;SDS011;56357;52.304;4.870;2022-11-18T09:57:45;6.88;;;1.08;;
69244;SDS011;56357;52.304;4.870;2022-11-18T10:05:24;3.78;;;0.82;;
69244;SDS011;56357;52.304;4.870;2022-11-18T10:07:55;5.50;;;1.05;;
69244;SDS011;56357;52.304;4.870;2022-11-18T10:10:53;6.45;;;0.88;;
69244;SDS011;56357;52.304;4.870;2022-11-18T10:13:30;5.28;;;1.00;;
69244;SDS011;56357;52.304;4.870;2022-11-18T10:24:35;7.05;;;0.95;;
69244;SDS011;56357;52.304;4.870;2022-11-18T10:27:07;5.32;;;1.00;;
69244;SDS011;56357;52.304;4.870;2022-11-18T10:29:36;5.13;;;0.90;;
69244;SDS011;56357;52.304;4.870;2022-11-18T10:32:04;5.28;;;0.70;;
69244;SDS011;56357;52.304;4.870;2022-11-18T10:34:34;5.68;;;0.95;;
69244;SDS011;56357;52.304;4.870;2022-11-18T10:37:30;5.97;;;1.00;;
69244;SDS011;56357;52.304;4.870;2022-11-18T10:39:59;3.90;;;0.80;;
69244;SDS011;56357;52.304;4.870;2022-11-18T10:45:25;6.38;;;0.73;;
69244;SDS011;56357;52.304;4.870;2022-11-18T10:47:58;4.65;;;1.05;;
69244;SDS011;56357;52.304;4.870;2022-11-18T10:50:31;4.53;;;0.70;;
69244;SDS011;56357;52.304;4.870;2022-11-18T10:52:59;5.18;;;1.10;;
69244;SDS011;56357;52.304;4.870;2022-11-18T10:55:27;5.10;;;1.00;;
69244;SDS011;56357;52.304;4.870;2022-11-18T10:57:59;5.00;;;1.10;;
69244;SDS011;56357;52.304;4.870;2022-11-18T11:00:41;5.03;;;1.10;;
69244;SDS011;56357;52.304;4.870;2022-11-18T11:03:53;5.80;;;0.77;;
69244;SDS011;56357;52.304;4.870;2022-11-18T11:06:22;4.03;;;0.70;;
69244;SDS011;56357;52.304;4.870;2022-11-18T11:16:51;5.30;;;1.27;;
69244;SDS011;56357;52.304;4.870;2022-11-18T11:19:25;4.90;;;1.08;;
69244;SDS011;56357;52.304;4.870;2022-11-18T11:21:58;6.83;;;1.03;;
69244;SDS011;56357;52.304;4.870;2022-11-18T11:24:25;5.53;;;1.02;;
69244;SDS011;56357;52.304;4.870;2022-11-18T11:27:03;5.32;;;1.10;;
69244;SDS011;56357;52.304;4.870;2022-11-18T11:35:18;6.07;;;1.30;;
69244;SDS011;56357;52.304;4.870;2022-11-18T11:37:59;4.75;;;0.80;;
69244;SDS011;56357;52.304;4.870;2022-11-18T11:48:54;5.80;;;0.97;;
69244;SDS011;56357;52.304;4.870;2022-11-18T11:51:44;6.10;;;1.05;;
69244;SDS011;56357;52.304;4.870;2022-11-18T11:54:22;7.47;;;1.20;;
69244;SDS011;56357;52.304;4.870;2022-11-18T11:56:58;5.63;;;1.10;;
69244;SDS011;56357;52.304;4.870;2022-11-18T12:00:00;6.63;;;0.80;;
69244;SDS011;56357;52.304;4.870;2022-11-18T12:08:18;6.07;;;0.75;;
69244;SDS011;56357;52.304;4.870;2022-11-18T12:13:56;6.38;;;1.02;;
69244;SDS011;56357;52.304;4.870;2022-11-18T12:19:19;4.82;;;1.00;;
69244;SDS011;56357;52.304;4.870;2022-11-18T12:21:51;7.85;;;1.30;;
69244;SDS011;56357;52.304;4.870;2022-11-18T12:26:47;5.10;;;1.10;;
69244;SDS011;56357;52.304;4.870;2022-11-18T12:42:39;3.87;;;0.80;;
69244;SDS011;56357;52.304;4.870;2022-11-18T12:50:50;4.40;;;0.90;;
69244;SDS011;56357;52.304;4.870;2022-11-18T12:58:46;6.60;;;1.23;;
69244;SDS011;56357;52.304;4.870;2022-11-18T13:01:21;4.47;;;1.15;;
69244;SDS011;56357;52.304;4.870;2022-11-18T13:04:06;5.82;;;1.65;;
69244;SDS011;56357;52.304;4.870;2022-11-18T13:06:34;4.82;;;1.23;;
69244;SDS011;56357;52.304;4.870;2022-11-18T13:09:04;5.07;;;1.17;;
69244;SDS011;56357;52.304;4.870;2022-11-18T13:11:57;5.32;;;1.25;;
69244;SDS011;56357;52.304;4.870;2022-11-18T13:14:28;5.97;;;1.20;;
69244;SDS011;56357;52.304;4.870;2022-11-18T13:17:28;4.97;;;1.15;;
69244;SDS011;56357;52.304;4.870;2022-11-18T13:20:22;6.50;;;1.10;;
69244;SDS011;56357;52.304;4.870;2022-11-18T13:22:52;5.87;;;1.10;;
69244;SDS011;56357;52.304;4.870;2022-11-18T13:25:38;5.25;;;1.42;;
69244;SDS011;56357;52.304;4.870;2022-11-18T13:30:50;5.22;;;1.45;;
69244;SDS011;56357;52.304;4.870;2022-11-18T13:33:23;5.07;;;1.50;;
69244;SDS011;56357;52.304;4.870;2022-11-18T13:35:49;6.53;;;1.50;;
69244;SDS011;56357;52.304;4.870;2022-11-18T13:38:22;7.85;;;1.58;;
69244;SDS011;56357;52.304;4.870;2022-11-18T13:40:50;6.85;;;1.42;;
69244;SDS011;56357;52.304;4.870;2022-11-18T13:43:32;5.57;;;1.58;;
69244;SDS011;56357;52.304;4.870;2022-11-18T13:46:01;7.18;;;1.50;;
69244;SDS011;56357;52.304;4.870;2022-11-18T13:48:32;6.53;;;1.37;;
69244;SDS011;56357;52.304;4.870;2022-11-18T13:51:02;5.82;;;1.40;;
69244;SDS011;56357;52.304;4.870;2022-11-18T13:53:30;8.30;;;1.85;;
69244;SDS011;56357;52.304;4.870;2022-11-18T13:56:00;5.22;;;1.45;;
69244;SDS011;56357;52.304;4.870;2022-11-18T13:58:40;6.93;;;2.30;;
69244;SDS011;56357;52.304;4.870;2022-11-18T14:01:13;7.57;;;2.40;;
69244;SDS011;56357;52.304;4.870;2022-11-18T14:03:48;6.32;;;2.03;;
69244;SDS011;56357;52.304;4.870;2022-11-18T14:11:38;7.03;;;2.03;;
69244;SDS011;56357;52.304;4.870;2022-11-18T14:14:07;8.00;;;1.90;;
69244;SDS011;56357;52.304;4.870;2022-11-18T14:16:37;7.30;;;1.90;;
69244;SDS011;56357;52.304;4.870;2022-11-18T14:19:05;5.25;;;2.05;;
69244;SDS011;56357;52.304;4.870;2022-11-18T14:21:33;7.35;;;1.90;;
69244;SDS011;56357;52.304;4.870;2022-11-18T14:24:02;6.45;;;2.08;;
69244;SDS011;56357;52.304;4.870;2022-11-18T14:26:36;5.23;;;2.10;;
69244;SDS011;56357;52.304;4.870;2022-11-18T14:29:16;6.43;;;2.10;;
69244;SDS011;56357;52.304;4.870;2022-11-18T14:34:59;7.05;;;2.05;;
69244;SDS011;56357;52.304;4.870;2022-11-18T14:37:26;5.68;;;2.35;;
69244;SDS011;56357;52.304;4.870;2022-11-18T14:39:54;7.63;;;2.40;;
69244;SDS011;56357;52.304;4.870;2022-11-18T14:42:23;4.75;;;2.10;;
69244;SDS011;56357;52.304;4.870;2022-11-18T14:44:50;6.03;;;2.33;;
69244;SDS011;56357;52.304;4.870;2022-11-18T14:47:19;7.50;;;2.53;;
69244;SDS011;56357;52.304;4.870;2022-11-18T14:49:50;7.72;;;2.25;;
69244;SDS011;56357;52.304;4.870;2022-11-18T14:52:17;6.30;;;2.17;;
69244;SDS011;56357;52.304;4.870;2022-11-18T14:54:43;5.82;;;2.22;;
69244;SDS011;56357;52.304;4.870;2022-11-18T14:57:11;8.18;;;2.50;;
69244;SDS011;56357;52.304;4.870;2022-11-18T14:59:40;8.20;;;2.45;;
69244;SDS011;56357;52.304;4.870;2022-11-18T15:02:14;6.90;;;2.35;;
69244;SDS011;56357;52.304;4.870;2022-11-18T15:04:41;7.50;;;2.40;;
69244;SDS011;56357;52.304;4.870;2022-11-18T15:07:09;7.70;;;3.05;;
69244;SDS011;56357;52.304;4.870;2022-11-18T15:09:39;9.52;;;3.47;;
69244;SDS011;56357;52.304;4.870;2022-11-18T15:12:06;8.00;;;2.90;;
69244;SDS011;56357;52.304;4.870;2022-11-18T15:14:33;7.35;;;3.35;;
69244;SDS011;56357;52.304;4.870;2022-11-18T15:17:02;7.90;;;2.80;;
69244;SDS011;56357;52.304;4.870;2022-11-18T15:19:29;7.95;;;3.25;;
69244;SDS011;56357;52.304;4.870;2022-11-18T15:21:56;7.38;;;2.85;;
69244;SDS011;56357;52.304;4.870;2022-11-18T15:24:22;8.68;;;3.03;;
69244;SDS011;56357;52.304;4.870;2022-11-18T15:26:49;7.60;;;2.58;;
69244;SDS011;56357;52.304;4.870;2022-11-18T15:29:16;11.03;;;2.97;;
69244;SDS011;56357;52.304;4.870;2022-11-18T15:31:44;6.75;;;2.90;;
69244;SDS011;56357;52.304;4.870;2022-11-18T15:34:11;7.57;;;3.30;;
69244;SDS011;56357;52.304;4.870;2022-11-18T15:36:38;9.30;;;3.47;;
69244;SDS011;56357;52.304;4.870;2022-11-18T15:39:04;7.90;;;3.05;;
69244;SDS011;56357;52.304;4.870;2022-11-18T15:41:31;7.40;;;3.00;;
69244;SDS011;56357;52.304;4.870;2022-11-18T15:43:58;7.53;;;2.72;;
69244;SDS011;56357;52.304;4.870;2022-11-18T15:46:26;6.90;;;3.15;;
69244;SDS011;56357;52.304;4.870;2022-11-18T15:48:54;6.32;;;3.33;;
69244;SDS011;56357;52.304;4.870;2022-11-18T15:51:22;9.45;;;3.20;;
69244;SDS011;56357;52.304;4.870;2022-11-18T15:53:49;6.67;;;3.20;;
69244;SDS011;56357;52.304;4.870;2022-11-18T16:01:20;8.18;;;3.20;;
69244;SDS011;56357;52.304;4.870;2022-11-18T16:03:47;7.97;;;3.50;;
69244;SDS011;56357;52.304;4.870;2022-11-18T16:06:14;7.73;;;3.00;;
69244;SDS011;56357;52.304;4.870;2022-11-18T16:08:40;10.73;;;3.40;;
69244;SDS011;56357;52.304;4.870;2022-11-18T16:11:09;8.93;;;4.00;;
69244;SDS011;56357;52.304;4.870;2022-11-18T16:13:58;7.63;;;3.25;;
69244;SDS011;56357;52.304;4.870;2022-11-18T16:16:26;7.80;;;3.88;;
69244;SDS011;56357;52.304;4.870;2022-11-18T16:18:54;10.73;;;3.50;;
69244;SDS011;56357;52.304;4.870;2022-11-18T16:21:24;9.25;;;3.60;;
69244;SDS011;56357;52.304;4.870;2022-11-18T16:23:55;7.75;;;3.08;;
69244;SDS011;56357;52.304;4.870;2022-11-18T16:26:25;7.60;;;3.20;;
69244;SDS011;56357;52.304;4.870;2022-11-18T16:28:54;6.78;;;3.25;;
69244;SDS011;56357;52.304;4.870;2022-11-18T16:31:21;6.00;;;2.57;;
69244;SDS011;56357;52.304;4.870;2022-11-18T16:34:08;8.15;;;3.40;;
69244;SDS011;56357;52.304;4.870;2022-11-18T16:36:36;7.22;;;3.50;;
69244;SDS011;56357;52.304;4.870;2022-11-18T16:39:14;10.60;;;3.75;;
69244;SDS011;56357;52.304;4.870;2022-11-18T16:41:42;8.95;;;3.30;;
69244;SDS011;56357;52.304;4.870;2022-11-18T16:44:13;7.43;;;3.20;;
69244;SDS011;56357;52.304;4.870;2022-11-18T16:46:43;8.65;;;2.95;;
69244;SDS011;56357;52.304;4.870;2022-11-18T16:49:13;8.23;;;4.00;;
69244;SDS011;56357;52.304;4.870;2022-11-18T16:51:42;6.97;;;3.28;;
69244;SDS011;56357;52.304;4.870;2022-11-18T16:54:17;6.85;;;3.20;;
69244;SDS011;56357;52.304;4.870;2022-11-18T16:56:46;7.47;;;3.10;;
69244;SDS011;56357;52.304;4.870;2022-11-18T16:59:14;7.85;;;2.97;;
69244;SDS011;56357;52.304;4.870;2022-11-18T17:01:42;7.97;;;3.15;;
69244;SDS011;56357;52.304;4.870;2022-11-18T17:04:10;8.07;;;2.92;;
69244;SDS011;56357;52.304;4.870;2022-11-18T17:06:36;7.15;;;2.58;;
69244;SDS011;56357;52.304;4.870;2022-11-18T17:09:03;6.83;;;2.97;;